createdAt,value
2019-06-08T00:00:47.187Z,3.27
2019-06-08T00:03:16.672Z,3.63
2019-06-08T00:05:45.285Z,3.70
2019-06-08T00:08:14.810Z,3.70
2019-06-08T00:10:43.417Z,3.27
2019-06-08T00:13:13.116Z,3.10
2019-06-08T00:15:41.823Z,3.90
2019-06-08T00:18:10.706Z,3.07
2019-06-08T00:20:39.287Z,2.73
2019-06-08T00:23:08.084Z,2.60
2019-06-08T00:25:36.661Z,3.47
2019-06-08T00:28:05.369Z,2.87
2019-06-08T00:30:35.166Z,2.73
2019-06-08T00:33:03.806Z,2.90
2019-06-08T00:35:32.345Z,2.57
2019-06-08T00:38:01.325Z,2.37
2019-06-08T00:40:29.926Z,2.50
2019-06-08T00:42:58.470Z,2.57
2019-06-08T00:45:27.371Z,2.27
2019-06-08T00:47:55.954Z,2.70
2019-06-08T00:50:25.146Z,2.27
2019-06-08T00:52:53.855Z,2.20
2019-06-08T00:55:23.761Z,2.67
2019-06-08T00:57:52.362Z,2.47
2019-06-08T01:00:22.371Z,2.77
2019-06-08T01:02:51.293Z,2.70
2019-06-08T01:05:20.038Z,2.40
2019-06-08T01:07:48.950Z,2.50
2019-06-08T01:10:17.613Z,2.10
2019-06-08T01:12:46.171Z,2.33
2019-06-08T01:15:16.497Z,2.03
2019-06-08T01:17:45.049Z,2.00
2019-06-08T01:20:13.902Z,2.23
2019-06-08T01:22:42.486Z,1.80
2019-06-08T01:25:11.358Z,1.70
2019-06-08T01:27:39.952Z,1.70
2019-06-08T01:30:08.733Z,1.60
2019-06-08T01:32:37.935Z,1.67
2019-06-08T01:35:06.873Z,1.67
2019-06-08T01:37:35.425Z,1.40
2019-06-08T01:40:04.587Z,1.60
2019-06-08T01:42:33.133Z,1.50
2019-06-08T01:45:02.655Z,1.53
2019-06-08T01:47:32.724Z,1.50
2019-06-08T01:50:01.289Z,1.90
2019-06-08T01:52:30.901Z,1.90
2019-06-08T01:54:59.531Z,1.47
2019-06-08T01:57:29.308Z,1.90
2019-06-08T01:59:57.941Z,2.13
2019-06-08T02:02:27.831Z,1.43
2019-06-08T02:04:56.468Z,1.70
2019-06-08T02:07:26.256Z,1.30
2019-06-08T02:09:54.990Z,1.67
2019-06-08T02:12:24.769Z,1.23
2019-06-08T02:14:53.690Z,1.40
2019-06-08T02:17:22.284Z,1.50
2019-06-08T02:19:50.861Z,1.60
2019-06-08T02:22:19.422Z,1.30
2019-06-08T02:24:48.395Z,1.57
2019-06-08T02:27:16.964Z,1.70
2019-06-08T02:29:45.917Z,1.20
2019-06-08T02:32:14.450Z,1.33
2019-06-08T02:34:43.376Z,1.17
2019-06-08T02:37:11.941Z,1.33
2019-06-08T02:39:40.547Z,1.33
2019-06-08T02:42:09.429Z,1.10
2019-06-08T02:44:37.971Z,1.50
2019-06-08T02:47:06.531Z,1.10
2019-06-08T02:49:35.466Z,1.30
2019-06-08T02:52:04.475Z,1.43
2019-06-08T02:54:35.343Z,1.23
2019-06-08T02:57:04.874Z,1.23
2019-06-08T02:59:37.795Z,1.47
2019-06-08T03:02:06.427Z,1.17
2019-06-08T03:04:38.780Z,1.10
2019-06-08T03:07:07.791Z,1.33
2019-06-08T03:09:38.528Z,1.13
2019-06-08T03:12:07.195Z,1.20
2019-06-08T03:14:37.505Z,0.80
2019-06-08T03:17:06.026Z,1.27
2019-06-08T03:19:35.691Z,1.30
2019-06-08T03:22:04.345Z,1.07
2019-06-08T03:24:34.451Z,1.10
2019-06-08T03:27:03.705Z,1.10
2019-06-08T03:29:32.530Z,1.07
2019-06-08T03:32:01.175Z,1.00
2019-06-08T03:34:29.747Z,1.30
2019-06-08T03:36:58.291Z,1.10
2019-06-08T03:39:28.497Z,1.00
2019-06-08T03:41:57.068Z,1.10
2019-06-08T03:44:25.637Z,0.90
2019-06-08T03:46:54.215Z,1.00
2019-06-08T03:49:40.376Z,0.87
2019-06-08T03:51:53.163Z,1.20
2019-06-08T03:54:21.722Z,0.90
2019-06-08T03:56:50.287Z,1.00
2019-06-08T03:59:18.886Z,0.77
2019-06-08T04:01:47.523Z,0.70
2019-06-08T04:04:16.046Z,1.10
2019-06-08T04:06:45.748Z,0.90
2019-06-08T04:09:14.355Z,0.70
2019-06-08T04:11:44.960Z,1.07
2019-06-08T04:14:13.860Z,0.70
2019-06-08T04:16:44.373Z,0.80
2019-06-08T04:19:12.738Z,0.60
2019-06-08T04:21:41.828Z,0.97
2019-06-08T04:24:10.378Z,0.70
2019-06-08T04:26:40.576Z,0.90
2019-06-08T04:29:09.842Z,0.73
2019-06-08T04:31:39.644Z,0.60
2019-06-08T04:34:08.274Z,0.80
2019-06-08T04:36:36.844Z,0.87
2019-06-08T04:39:07.223Z,0.93
2019-06-08T04:41:35.803Z,0.90
2019-06-08T04:44:04.348Z,0.73
2019-06-08T04:46:32.923Z,0.77
2019-06-08T04:49:01.472Z,0.70
2019-06-08T04:51:30.569Z,0.80
2019-06-08T04:53:59.103Z,0.80
2019-06-08T04:56:27.663Z,0.87
2019-06-08T04:58:56.237Z,0.90
2019-06-08T05:01:24.907Z,0.70
2019-06-08T05:03:53.482Z,0.97
2019-06-08T05:06:22.310Z,0.63
2019-06-08T05:08:50.907Z,0.80
2019-06-08T05:11:19.468Z,0.80
2019-06-08T05:13:49.421Z,0.60
2019-06-08T05:16:18.293Z,0.73
2019-06-08T05:18:47.372Z,0.63
2019-06-08T05:21:15.951Z,1.00
2019-06-08T05:23:45.587Z,0.80
2019-06-08T05:26:14.187Z,0.70
2019-06-08T05:28:43.187Z,0.60
2019-06-08T05:31:11.768Z,0.50
2019-06-08T05:33:41.299Z,0.70
2019-06-08T05:36:09.820Z,0.60
2019-06-08T05:38:39.462Z,0.70
2019-06-08T05:41:08.072Z,0.50
2019-06-08T05:43:36.649Z,0.50
2019-06-08T05:46:05.252Z,0.80
2019-06-08T05:48:33.835Z,0.70
2019-06-08T05:51:04.111Z,0.90
2019-06-08T05:53:33.072Z,0.43
2019-06-08T05:56:01.644Z,0.60
2019-06-08T05:58:30.279Z,0.70
2019-06-08T06:00:58.834Z,0.60
2019-06-08T06:03:27.408Z,0.57
2019-06-08T06:05:55.970Z,0.60
2019-06-08T06:08:24.537Z,0.60
2019-06-08T06:10:53.130Z,0.67
2019-06-08T06:13:21.815Z,0.70
2019-06-08T06:15:51.740Z,0.70
2019-06-08T06:18:20.432Z,0.70
2019-06-08T06:20:49.420Z,0.70
2019-06-08T06:23:18.234Z,0.50
2019-06-08T06:25:47.531Z,0.50
2019-06-08T06:28:17.000Z,0.47
2019-06-08T06:30:46.688Z,0.63
2019-06-08T06:33:15.741Z,0.43
2019-06-08T06:35:45.669Z,0.40
2019-06-08T06:38:14.819Z,0.50
2019-06-08T06:40:43.966Z,0.50
2019-06-08T06:43:12.626Z,0.50
2019-06-08T06:45:41.849Z,0.50
2019-06-08T06:48:10.721Z,0.60
2019-06-08T06:50:39.305Z,0.60
2019-06-08T06:53:07.881Z,0.87
2019-06-08T06:55:36.748Z,0.97
2019-06-08T06:58:05.637Z,0.70
2019-06-08T07:00:34.237Z,0.80
2019-06-08T07:03:02.834Z,0.70
2019-06-08T07:05:31.395Z,0.67
2019-06-08T07:08:00.289Z,0.50
2019-06-08T07:10:28.847Z,0.77
2019-06-08T07:12:57.407Z,0.90
2019-06-08T07:15:29.186Z,0.60
2019-06-08T07:17:58.595Z,0.60
2019-06-08T07:20:27.571Z,0.70
2019-06-08T07:22:56.198Z,0.50
2019-06-08T07:25:25.067Z,0.77
2019-06-08T07:27:55.099Z,0.50
2019-06-08T07:30:23.814Z,0.60
2019-06-08T07:32:52.993Z,0.60
2019-06-08T07:35:21.619Z,0.77
2019-06-08T07:37:51.858Z,0.87
2019-06-08T07:40:20.497Z,0.80
2019-06-08T07:42:49.705Z,0.67
2019-06-08T07:45:19.431Z,2.70
2019-06-08T07:47:48.016Z,1.00
2019-06-08T07:50:16.966Z,0.90
2019-06-08T07:52:45.680Z,0.63
2019-06-08T07:55:14.287Z,0.67
2019-06-08T07:57:42.843Z,0.90
2019-06-08T08:00:11.724Z,1.20
2019-06-08T08:02:40.353Z,0.93
2019-06-08T08:05:09.177Z,1.00
2019-06-08T08:07:37.759Z,1.00
2019-06-08T08:10:07.162Z,0.63
2019-06-08T08:12:35.792Z,0.70
2019-06-08T08:15:04.737Z,0.50
2019-06-08T08:17:34.392Z,0.80
2019-06-08T08:20:03.137Z,0.97
2019-06-08T08:22:31.734Z,0.80
2019-06-08T08:25:04.599Z,0.60
2019-06-08T08:27:30.951Z,0.60
2019-06-08T08:30:01.724Z,0.60
2019-06-08T08:32:29.847Z,0.83
2019-06-08T08:35:01.050Z,0.87
2019-06-08T08:37:28.752Z,0.83
2019-06-08T08:39:59.651Z,0.80
2019-06-08T08:42:30.186Z,0.80
2019-06-08T08:45:02.648Z,0.60
2019-06-08T08:47:30.812Z,0.70
2019-06-08T08:50:01.917Z,0.70
2019-06-08T08:52:36.852Z,0.70
2019-06-08T08:55:00.914Z,0.70
2019-06-08T08:57:30.334Z,0.60
2019-06-08T09:00:04.334Z,0.77
2019-06-08T09:02:29.204Z,0.70
2019-06-08T09:05:00.311Z,0.73
2019-06-08T09:07:28.096Z,0.70
2019-06-08T09:10:00.464Z,1.10
2019-06-08T09:12:27.716Z,0.70
2019-06-08T09:14:58.890Z,1.50
2019-06-08T09:17:27.983Z,0.97
2019-06-08T09:19:58.882Z,1.20
2019-06-08T09:22:28.183Z,0.87
2019-06-08T09:25:01.261Z,0.97
2019-06-08T09:27:28.077Z,0.70
2019-06-08T09:29:59.697Z,0.80
2019-06-08T09:32:28.212Z,1.10
2019-06-08T09:34:59.576Z,0.73
2019-06-08T09:37:28.808Z,1.00
2019-06-08T09:39:58.957Z,0.80
2019-06-08T09:42:28.455Z,0.70
2019-06-08T09:45:00.422Z,0.70
2019-06-08T09:47:28.012Z,0.50
2019-06-08T09:50:01.452Z,0.67
2019-06-08T09:52:28.149Z,0.93
2019-06-08T09:55:01.989Z,2.13
2019-06-08T09:57:28.438Z,2.47
2019-06-08T09:59:59.842Z,1.93
2019-06-08T10:02:28.325Z,1.40
2019-06-08T10:05:00.487Z,1.10
2019-06-08T10:07:31.079Z,0.90
2019-06-08T10:10:00.343Z,1.00
2019-06-08T10:12:28.311Z,0.87
2019-06-08T10:14:58.667Z,0.90
2019-06-08T10:17:27.918Z,0.90
2019-06-08T10:20:00.240Z,1.10
2019-06-08T10:22:28.238Z,0.90
2019-06-08T10:25:00.278Z,0.80
2019-06-08T10:27:28.348Z,0.90
2019-06-08T10:30:00.014Z,1.00
2019-06-08T10:32:28.183Z,1.33
2019-06-08T10:34:59.801Z,1.07
2019-06-08T10:37:28.338Z,1.00
2019-06-08T10:40:00.637Z,1.10
2019-06-08T10:42:27.253Z,1.03
2019-06-08T10:44:59.323Z,1.03
2019-06-08T10:47:29.580Z,0.63
2019-06-08T10:49:59.553Z,1.03
2019-06-08T10:52:28.150Z,1.07
2019-06-08T10:54:59.759Z,1.10
2019-06-08T10:57:28.020Z,0.73
2019-06-08T10:59:57.942Z,0.93
2019-06-08T11:02:28.152Z,0.83
2019-06-08T11:04:58.790Z,0.87
2019-06-08T11:07:28.122Z,0.90
2019-06-08T11:09:58.644Z,0.90
2019-06-08T11:12:28.310Z,1.30
2019-06-08T11:14:58.393Z,1.00
2019-06-08T11:17:27.933Z,1.17
2019-06-08T11:19:59.439Z,1.30
2019-06-08T11:22:27.890Z,0.90
2019-06-08T11:24:58.562Z,0.83
2019-06-08T11:27:28.521Z,0.90
2019-06-08T11:29:57.562Z,1.20
2019-06-08T11:32:26.238Z,1.53
2019-06-08T11:34:55.060Z,1.00
2019-06-08T11:37:23.626Z,1.10
2019-06-08T11:39:52.239Z,1.00
2019-06-08T11:42:20.791Z,0.93
2019-06-08T11:44:51.222Z,1.07
2019-06-08T11:47:20.066Z,0.90
2019-06-08T11:49:50.026Z,0.90
2019-06-08T11:52:18.762Z,0.97
2019-06-08T11:54:48.053Z,1.10
2019-06-08T11:57:17.705Z,1.07
2019-06-08T11:59:48.473Z,1.07
2019-06-08T12:02:18.508Z,0.93
2019-06-08T12:04:47.555Z,0.80
2019-06-08T12:07:16.130Z,0.80
2019-06-08T12:09:44.740Z,0.63
2019-06-08T12:12:17.513Z,1.00
2019-06-08T12:14:43.650Z,0.80
2019-06-08T12:17:17.985Z,1.00
2019-06-08T12:19:42.527Z,1.00
2019-06-08T12:22:12.757Z,0.80
2019-06-08T12:24:42.665Z,0.80
2019-06-08T12:27:24.868Z,1.07
2019-06-08T12:29:42.274Z,1.33
2019-06-08T12:32:12.472Z,0.87
2019-06-08T12:34:41.113Z,0.80
2019-06-08T12:37:15.701Z,0.87
2019-06-08T12:39:39.943Z,1.07
2019-06-08T12:42:14.676Z,0.70
2019-06-08T12:44:38.781Z,0.90
2019-06-08T12:47:12.601Z,1.07
2019-06-08T12:49:40.444Z,1.07
2019-06-08T12:52:10.074Z,1.03
2019-06-08T12:54:38.825Z,0.97
2019-06-08T12:57:11.908Z,1.30
2019-06-08T12:59:38.433Z,0.97
2019-06-08T13:02:08.919Z,0.90
2019-06-08T13:04:38.414Z,1.00
2019-06-08T13:07:09.759Z,0.93
2019-06-08T13:09:38.106Z,1.23
2019-06-08T13:12:08.013Z,0.87
2019-06-08T13:14:38.511Z,1.30
2019-06-08T13:17:08.658Z,0.90
2019-06-08T13:19:38.750Z,1.10
2019-06-08T13:22:08.820Z,1.20
2019-06-08T13:24:37.815Z,1.27
2019-06-08T13:27:06.452Z,1.23
2019-06-08T13:29:35.031Z,0.80
2019-06-08T13:32:03.629Z,1.00
2019-06-08T13:34:32.220Z,1.00
2019-06-08T13:37:01.099Z,1.20
2019-06-08T13:39:29.965Z,1.10
2019-06-08T13:41:59.014Z,1.20
2019-06-08T13:44:28.009Z,1.00
2019-06-08T13:46:57.788Z,0.97
2019-06-08T13:49:29.741Z,1.13
2019-06-08T13:51:58.389Z,1.00
2019-06-08T13:54:30.892Z,1.10
2019-06-08T13:56:58.954Z,1.00
2019-06-08T13:59:30.699Z,1.00
2019-06-08T14:01:58.137Z,0.90
2019-06-08T14:04:26.670Z,1.00
2019-06-08T14:06:57.729Z,1.00
2019-06-08T14:09:28.500Z,1.00
2019-06-08T14:11:57.780Z,1.20
2019-06-08T14:14:28.839Z,1.00
2019-06-08T14:16:58.750Z,0.93
2019-06-08T14:19:29.701Z,1.00
2019-06-08T14:21:58.634Z,0.90
2019-06-08T14:24:33.842Z,1.10
2019-06-08T14:26:58.489Z,1.20
2019-06-08T14:29:28.853Z,1.00
2019-06-08T14:31:57.939Z,0.90
2019-06-08T14:34:29.032Z,1.10
2019-06-08T14:36:58.945Z,1.13
2019-06-08T14:39:29.610Z,0.90
2019-06-08T14:41:57.822Z,1.10
2019-06-08T14:44:31.333Z,1.07
2019-06-08T14:46:57.937Z,1.00
2019-06-08T14:49:34.707Z,1.07
2019-06-08T14:52:00.354Z,0.97
2019-06-08T14:54:33.272Z,1.10
2019-06-08T14:56:59.516Z,1.00
2019-06-08T14:59:30.460Z,0.70
2019-06-08T15:01:58.425Z,1.00
2019-06-08T15:04:34.113Z,0.90
2019-06-08T15:06:58.600Z,0.70
2019-06-08T15:09:29.822Z,1.10
2019-06-08T15:11:58.226Z,1.00
2019-06-08T15:14:30.679Z,1.10
2019-06-08T15:16:59.001Z,1.53
2019-06-08T15:19:32.537Z,1.00
2019-06-08T15:22:01.240Z,0.90
2019-06-08T15:24:32.309Z,1.30
2019-06-08T15:27:00.089Z,1.03
2019-06-08T15:29:30.705Z,1.27
2019-06-08T15:31:59.401Z,1.10
2019-06-08T15:34:30.080Z,1.03
2019-06-08T15:36:59.035Z,1.40
2019-06-08T15:39:29.041Z,1.47
2019-06-08T15:42:00.160Z,1.20
2019-06-08T15:44:30.130Z,1.20
2019-06-08T15:46:58.767Z,1.40
2019-06-08T15:49:30.940Z,1.00
2019-06-08T15:51:59.737Z,1.07
2019-06-08T15:54:33.085Z,1.20
2019-06-08T15:56:58.689Z,1.33
2019-06-08T15:59:35.041Z,1.00
2019-06-08T16:01:59.554Z,1.00
2019-06-08T16:04:28.174Z,1.00
2019-06-08T16:06:56.749Z,0.87
2019-06-08T16:09:25.952Z,1.20
2019-06-08T16:11:54.570Z,1.67
2019-06-08T16:14:23.723Z,0.73
2019-06-08T16:16:53.355Z,1.20
2019-06-08T16:19:21.932Z,1.30
2019-06-08T16:21:50.716Z,1.50
2019-06-08T16:24:19.319Z,1.17
2019-06-08T16:26:53.126Z,1.50
2019-06-08T16:29:18.198Z,1.03
2019-06-08T16:31:47.035Z,1.10
2019-06-08T16:34:16.384Z,0.90
2019-06-08T16:36:45.470Z,1.40
2019-06-08T16:39:13.999Z,0.90
2019-06-08T16:41:42.867Z,1.40
2019-06-08T16:44:11.470Z,1.07
2019-06-08T16:46:40.063Z,1.10
2019-06-08T16:49:08.898Z,1.30
2019-06-08T16:51:37.491Z,1.53
2019-06-08T16:54:06.379Z,1.43
2019-06-08T16:56:36.365Z,1.20
2019-06-08T16:59:05.225Z,1.20
2019-06-08T17:01:34.722Z,1.40
2019-06-08T17:04:03.475Z,1.27
2019-06-08T17:06:33.199Z,1.10
2019-06-08T17:09:02.450Z,1.23
2019-06-08T17:11:31.817Z,1.40
2019-06-08T17:14:00.333Z,1.23
2019-06-08T17:16:29.994Z,1.83
2019-06-08T17:18:59.111Z,1.13
2019-06-08T17:21:27.678Z,1.43
2019-06-08T17:23:56.319Z,1.40
2019-06-08T17:26:24.859Z,1.20
2019-06-08T17:28:53.456Z,1.30
2019-06-08T17:31:22.326Z,1.20
2019-06-08T17:33:50.904Z,1.40
2019-06-08T17:36:19.506Z,1.37
2019-06-08T17:38:48.085Z,1.13
2019-06-08T17:41:16.661Z,1.20
2019-06-08T17:43:45.529Z,1.20
2019-06-08T17:46:14.210Z,1.70
2019-06-08T17:48:43.161Z,1.27
2019-06-08T17:51:11.713Z,1.27
2019-06-08T17:53:40.933Z,2.20
2019-06-08T17:56:09.629Z,1.40
2019-06-08T17:58:39.608Z,2.13
2019-06-08T18:01:08.250Z,1.97
2019-06-08T18:03:38.392Z,1.80
2019-06-08T18:06:07.388Z,1.40
2019-06-08T18:08:39.167Z,1.60
2019-06-08T18:11:08.101Z,1.83
2019-06-08T18:13:40.461Z,1.50
2019-06-08T18:16:08.251Z,1.97
2019-06-08T18:18:39.258Z,1.50
2019-06-08T18:21:08.121Z,2.20
2019-06-08T18:23:39.973Z,1.90
2019-06-08T18:26:07.745Z,1.33
2019-06-08T18:28:38.830Z,1.20
2019-06-08T18:31:07.493Z,1.53
2019-06-08T18:33:39.479Z,1.50
2019-06-08T18:36:07.656Z,1.67
2019-06-08T18:38:39.800Z,1.53
2019-06-08T18:41:08.243Z,1.43
2019-06-08T18:43:39.599Z,1.60
2019-06-08T18:46:07.313Z,1.57
2019-06-08T18:48:39.866Z,1.70
2019-06-08T18:51:08.325Z,1.43
2019-06-08T18:53:56.396Z,1.60
2019-06-08T18:56:10.487Z,1.33
2019-06-08T18:58:39.734Z,1.40
2019-06-08T19:01:08.858Z,1.80
2019-06-08T19:03:43.111Z,1.90
2019-06-08T19:06:10.423Z,1.83
2019-06-08T19:08:43.452Z,1.60
2019-06-08T19:11:10.863Z,1.70
2019-06-08T19:13:39.686Z,2.30
2019-06-08T19:16:08.795Z,2.00
2019-06-08T19:18:43.252Z,1.60
2019-06-08T19:21:08.258Z,1.87
2019-06-08T19:23:39.009Z,1.73
2019-06-08T19:26:07.791Z,1.70
2019-06-08T19:28:40.994Z,1.50
2019-06-08T19:31:09.864Z,1.90
2019-06-08T19:33:38.917Z,1.47
2019-06-08T19:36:07.893Z,1.30
2019-06-08T19:38:38.406Z,1.77
2019-06-08T19:41:08.116Z,1.20
2019-06-08T19:43:39.030Z,1.30
2019-06-08T19:46:08.040Z,1.50
2019-06-08T19:48:39.259Z,1.47
2019-06-08T19:51:07.646Z,1.30
2019-06-08T19:53:42.172Z,1.70
2019-06-08T19:56:07.812Z,1.60
2019-06-08T19:58:50.733Z,1.70
2019-06-08T20:01:07.404Z,1.50
2019-06-08T20:03:37.857Z,1.30
2019-06-08T20:06:06.654Z,1.50
2019-06-08T20:08:37.386Z,1.90
2019-06-08T20:11:08.120Z,1.50
2019-06-08T20:13:37.525Z,1.60
2019-06-08T20:16:08.430Z,1.40
2019-06-08T20:18:37.634Z,1.63
2019-06-08T20:21:10.061Z,1.53
2019-06-08T20:23:38.212Z,1.77
2019-06-08T20:26:08.389Z,1.63
2019-06-08T20:28:37.505Z,1.73
2019-06-08T20:31:07.501Z,1.37
2019-06-08T20:33:37.849Z,1.47
2019-06-08T20:36:08.288Z,1.40
2019-06-08T20:38:39.698Z,1.23
2019-06-08T20:41:07.713Z,1.10
2019-06-08T20:43:38.106Z,1.37
2019-06-08T20:46:08.132Z,1.37
2019-06-08T20:48:37.764Z,1.17
2019-06-08T20:51:07.833Z,1.60
2019-06-08T20:53:38.747Z,1.57
2019-06-08T20:56:08.043Z,1.37
2019-06-08T20:58:37.230Z,1.20
2019-06-08T21:01:07.666Z,1.53
2019-06-08T21:03:36.471Z,1.40
2019-06-08T21:06:07.611Z,1.07
2019-06-08T21:08:37.228Z,1.80
2019-06-08T21:11:08.404Z,1.70
2019-06-08T21:13:37.496Z,1.50
2019-06-08T21:16:07.501Z,1.50
2019-06-08T21:18:37.965Z,1.50
2019-06-08T21:21:08.076Z,1.20
2019-06-08T21:23:37.344Z,1.30
2019-06-08T21:26:07.980Z,1.23
2019-06-08T21:28:38.418Z,1.23
2019-06-08T21:31:08.555Z,1.37
2019-06-08T21:33:37.941Z,1.20
2019-06-08T21:36:08.748Z,1.13
2019-06-08T21:38:37.710Z,1.17
2019-06-08T21:41:08.316Z,1.30
2019-06-08T21:43:37.467Z,1.23
2019-06-08T21:46:07.806Z,1.30
2019-06-08T21:48:38.146Z,1.17
2019-06-08T21:51:08.357Z,1.20
2019-06-08T21:53:38.203Z,0.97
2019-06-08T21:56:07.906Z,1.13
2019-06-08T21:58:37.850Z,1.17
2019-06-08T22:01:07.396Z,1.13
2019-06-08T22:03:38.136Z,1.13
2019-06-08T22:06:07.795Z,1.00
2019-06-08T22:08:37.617Z,1.10
2019-06-08T22:11:08.536Z,1.30
2019-06-08T22:13:37.427Z,0.97
2019-06-08T22:16:08.092Z,0.90
2019-06-08T22:18:38.078Z,0.90
2019-06-08T22:21:08.097Z,1.00
2019-06-08T22:23:36.908Z,1.40
2019-06-08T22:26:08.327Z,0.80
2019-06-08T22:28:37.770Z,1.20
2019-06-08T22:31:07.967Z,1.07
2019-06-08T22:33:37.755Z,1.13
2019-06-08T22:36:08.930Z,1.20
2019-06-08T22:38:37.346Z,0.90
2019-06-08T22:41:08.022Z,1.10
2019-06-08T22:43:37.454Z,1.10
2019-06-08T22:46:08.330Z,0.97
2019-06-08T22:48:38.436Z,0.80
2019-06-08T22:51:08.067Z,1.07
2019-06-08T22:53:38.379Z,1.03
2019-06-08T22:56:09.644Z,0.73
2019-06-08T22:58:38.271Z,0.80
2019-06-08T23:01:10.619Z,1.10
2019-06-08T23:03:37.408Z,0.80
2019-06-08T23:06:08.779Z,1.10
2019-06-08T23:08:37.547Z,1.30
2019-06-08T23:11:08.412Z,1.10
2019-06-08T23:13:37.656Z,1.03
2019-06-08T23:16:08.854Z,1.00
2019-06-08T23:18:37.309Z,0.90
2019-06-08T23:21:08.706Z,1.00
2019-06-08T23:23:38.097Z,0.87
2019-06-08T23:26:10.233Z,0.90
2019-06-08T23:28:37.829Z,0.93
2019-06-08T23:31:20.324Z,0.80
2019-06-08T23:33:38.743Z,1.07
2019-06-08T23:36:39.480Z,0.87
2019-06-08T23:38:37.826Z,1.07
2019-06-08T23:41:09.947Z,1.10
2019-06-08T23:43:38.462Z,1.13
2019-06-08T23:46:08.149Z,0.90
2019-06-08T23:48:37.424Z,1.27
2019-06-08T23:51:09.097Z,1.20
2019-06-08T23:53:38.199Z,0.80
2019-06-08T23:56:10.206Z,1.33
2019-06-08T23:58:37.436Z,0.97
